sensor_id;sensor_type;location;lat;lon;timestamp;P1;durP1;ratioP1;P2;durP2;ratioP2
11313;SDS011;5712;48.858;9.206;2023-03-19T00:02:19;8.63;;;5.50;;
11313;SDS011;5712;48.858;9.206;2023-03-19T00:04:46;8.40;;;5.90;;
11313;SDS011;5712;48.858;9.206;2023-03-19T00:07:13;9.10;;;6.60;;
11313;SDS011;5712;48.858;9.206;2023-03-19T00:09:40;9.10;;;6.30;;
11313;SDS011;5712;48.858;9.206;2023-03-19T00:12:07;9.33;;;6.50;;
11313;SDS011;5712;48.858;9.206;2023-03-19T00:14:34;10.33;;;6.47;;
11313;SDS011;5712;48.858;9.206;2023-03-19T00:17:02;11.37;;;6.70;;
11313;SDS011;5712;48.858;9.206;2023-03-19T00:19:29;10.00;;;7.00;;
11313;SDS011;5712;48.858;9.206;2023-03-19T00:21:56;9.87;;;6.33;;
11313;SDS011;5712;48.858;9.206;2023-03-19T00:24:22;11.07;;;6.83;;
11313;SDS011;5712;48.858;9.206;2023-03-19T00:26:49;13.30;;;6.67;;
11313;SDS011;5712;48.858;9.206;2023-03-19T00:29:16;8.73;;;6.67;;
11313;SDS011;5712;48.858;9.206;2023-03-19T00:31:42;8.20;;;6.43;;
11313;SDS011;5712;48.858;9.206;2023-03-19T00:34:10;11.37;;;6.83;;
11313;SDS011;5712;48.858;9.206;2023-03-19T00:36:38;8.20;;;6.20;;
11313;SDS011;5712;48.858;9.206;2023-03-19T00:39:04;7.90;;;5.97;;
11313;SDS011;5712;48.858;9.206;2023-03-19T00:41:31;6.90;;;5.47;;
11313;SDS011;5712;48.858;9.206;2023-03-19T00:43:58;8.80;;;5.13;;
11313;SDS011;5712;48.858;9.206;2023-03-19T00:46:24;7.07;;;5.30;;
11313;SDS011;5712;48.858;9.206;2023-03-19T00:48:51;7.03;;;5.43;;
11313;SDS011;5712;48.858;9.206;2023-03-19T00:51:21;7.43;;;5.30;;
11313;SDS011;5712;48.858;9.206;2023-03-19T00:53:48;7.93;;;5.87;;
11313;SDS011;5712;48.858;9.206;2023-03-19T00:56:16;9.03;;;6.03;;
11313;SDS011;5712;48.858;9.206;2023-03-19T00:58:43;7.90;;;5.37;;
11313;SDS011;5712;48.858;9.206;2023-03-19T01:01:11;6.97;;;5.03;;
11313;SDS011;5712;48.858;9.206;2023-03-19T01:03:39;7.13;;;5.43;;
11313;SDS011;5712;48.858;9.206;2023-03-19T01:06:06;6.17;;;5.07;;
11313;SDS011;5712;48.858;9.206;2023-03-19T01:08:34;7.67;;;5.23;;
11313;SDS011;5712;48.858;9.206;2023-03-19T01:11:04;6.87;;;5.27;;
11313;SDS011;5712;48.858;9.206;2023-03-19T01:13:32;7.60;;;5.53;;
11313;SDS011;5712;48.858;9.206;2023-03-19T01:15:59;7.93;;;5.60;;
11313;SDS011;5712;48.858;9.206;2023-03-19T01:18:25;9.70;;;5.77;;
11313;SDS011;5712;48.858;9.206;2023-03-19T01:20:54;8.53;;;6.60;;
11313;SDS011;5712;48.858;9.206;2023-03-19T01:23:20;7.97;;;5.87;;
11313;SDS011;5712;48.858;9.206;2023-03-19T01:25:48;7.27;;;5.80;;
11313;SDS011;5712;48.858;9.206;2023-03-19T01:28:15;6.60;;;5.40;;
11313;SDS011;5712;48.858;9.206;2023-03-19T01:30:42;9.33;;;6.30;;
11313;SDS011;5712;48.858;9.206;2023-03-19T01:33:08;7.47;;;5.67;;
11313;SDS011;5712;48.858;9.206;2023-03-19T01:35:35;10.77;;;6.67;;
11313;SDS011;5712;48.858;9.206;2023-03-19T01:38:03;7.90;;;5.87;;
11313;SDS011;5712;48.858;9.206;2023-03-19T01:40:30;7.63;;;5.67;;
11313;SDS011;5712;48.858;9.206;2023-03-19T01:43:10;8.73;;;6.17;;
11313;SDS011;5712;48.858;9.206;2023-03-19T01:45:39;7.73;;;6.30;;
11313;SDS011;5712;48.858;9.206;2023-03-19T01:48:08;9.47;;;5.83;;
11313;SDS011;5712;48.858;9.206;2023-03-19T01:50:44;8.07;;;6.10;;
11313;SDS011;5712;48.858;9.206;2023-03-19T01:53:11;8.17;;;6.33;;
11313;SDS011;5712;48.858;9.206;2023-03-19T01:55:40;7.47;;;6.20;;
11313;SDS011;5712;48.858;9.206;2023-03-19T01:58:08;8.87;;;6.20;;
11313;SDS011;5712;48.858;9.206;2023-03-19T02:00:35;9.13;;;5.87;;
11313;SDS011;5712;48.858;9.206;2023-03-19T02:03:04;9.17;;;5.70;;
11313;SDS011;5712;48.858;9.206;2023-03-19T02:05:31;7.07;;;5.30;;
11313;SDS011;5712;48.858;9.206;2023-03-19T02:08:00;8.43;;;5.97;;
11313;SDS011;5712;48.858;9.206;2023-03-19T02:10:30;7.10;;;4.77;;
11313;SDS011;5712;48.858;9.206;2023-03-19T02:12:57;6.10;;;3.93;;
11313;SDS011;5712;48.858;9.206;2023-03-19T02:15:26;6.50;;;4.13;;
11313;SDS011;5712;48.858;9.206;2023-03-19T02:17:52;5.60;;;3.90;;
11313;SDS011;5712;48.858;9.206;2023-03-19T02:20:21;6.20;;;3.70;;
11313;SDS011;5712;48.858;9.206;2023-03-19T02:22:54;4.03;;;3.20;;
11313;SDS011;5712;48.858;9.206;2023-03-19T02:25:31;4.83;;;3.10;;
11313;SDS011;5712;48.858;9.206;2023-03-19T02:28:05;4.27;;;3.03;;
11313;SDS011;5712;48.858;9.206;2023-03-19T02:30:34;4.43;;;2.83;;
11313;SDS011;5712;48.858;9.206;2023-03-19T02:33:01;3.10;;;2.60;;
11313;SDS011;5712;48.858;9.206;2023-03-19T02:35:28;3.70;;;2.40;;
11313;SDS011;5712;48.858;9.206;2023-03-19T02:37:57;4.30;;;2.50;;
11313;SDS011;5712;48.858;9.206;2023-03-19T02:40:25;3.20;;;2.20;;
11313;SDS011;5712;48.858;9.206;2023-03-19T02:42:55;3.67;;;2.77;;
11313;SDS011;5712;48.858;9.206;2023-03-19T02:45:23;3.87;;;2.50;;
11313;SDS011;5712;48.858;9.206;2023-03-19T02:47:53;3.40;;;2.67;;
11313;SDS011;5712;48.858;9.206;2023-03-19T02:50:20;5.10;;;2.50;;
11313;SDS011;5712;48.858;9.206;2023-03-19T02:52:47;3.23;;;2.10;;
11313;SDS011;5712;48.858;9.206;2023-03-19T02:55:16;2.23;;;1.73;;
11313;SDS011;5712;48.858;9.206;2023-03-19T02:57:43;2.90;;;2.10;;
11313;SDS011;5712;48.858;9.206;2023-03-19T03:00:10;3.97;;;2.07;;
11313;SDS011;5712;48.858;9.206;2023-03-19T03:02:39;3.07;;;2.00;;
11313;SDS011;5712;48.858;9.206;2023-03-19T03:05:06;5.53;;;2.20;;
11313;SDS011;5712;48.858;9.206;2023-03-19T03:07:33;3.17;;;1.97;;
11313;SDS011;5712;48.858;9.206;2023-03-19T03:10:00;2.60;;;2.13;;
11313;SDS011;5712;48.858;9.206;2023-03-19T03:12:26;3.50;;;2.07;;
11313;SDS011;5712;48.858;9.206;2023-03-19T03:14:53;2.10;;;1.80;;
11313;SDS011;5712;48.858;9.206;2023-03-19T03:17:19;2.90;;;2.30;;
11313;SDS011;5712;48.858;9.206;2023-03-19T03:19:47;3.57;;;2.50;;
11313;SDS011;5712;48.858;9.206;2023-03-19T03:22:13;2.60;;;2.40;;
11313;SDS011;5712;48.858;9.206;2023-03-19T03:24:40;4.00;;;2.30;;
11313;SDS011;5712;48.858;9.206;2023-03-19T03:27:07;2.90;;;2.23;;
11313;SDS011;5712;48.858;9.206;2023-03-19T03:29:33;3.20;;;2.70;;
11313;SDS011;5712;48.858;9.206;2023-03-19T03:32:00;4.07;;;2.70;;
11313;SDS011;5712;48.858;9.206;2023-03-19T03:34:27;3.93;;;2.83;;
11313;SDS011;5712;48.858;9.206;2023-03-19T03:36:55;3.50;;;2.60;;
11313;SDS011;5712;48.858;9.206;2023-03-19T03:39:23;3.07;;;2.77;;
11313;SDS011;5712;48.858;9.206;2023-03-19T03:41:50;3.37;;;2.70;;
11313;SDS011;5712;48.858;9.206;2023-03-19T03:44:17;3.10;;;2.80;;
11313;SDS011;5712;48.858;9.206;2023-03-19T03:46:43;3.30;;;2.60;;
11313;SDS011;5712;48.858;9.206;2023-03-19T03:49:10;3.40;;;3.10;;
11313;SDS011;5712;48.858;9.206;2023-03-19T03:51:37;3.93;;;2.80;;
11313;SDS011;5712;48.858;9.206;2023-03-19T03:54:05;3.20;;;2.90;;
11313;SDS011;5712;48.858;9.206;2023-03-19T03:56:31;4.83;;;3.90;;
11313;SDS011;5712;48.858;9.206;2023-03-19T03:58:58;4.30;;;3.90;;
11313;SDS011;5712;48.858;9.206;2023-03-19T04:01:25;6.50;;;4.37;;
11313;SDS011;5712;48.858;9.206;2023-03-19T04:03:52;6.43;;;4.30;;
11313;SDS011;5712;48.858;9.206;2023-03-19T04:06:19;5.40;;;4.50;;
11313;SDS011;5712;48.858;9.206;2023-03-19T04:08:48;6.60;;;4.60;;
11313;SDS011;5712;48.858;9.206;2023-03-19T04:11:16;5.30;;;4.80;;
11313;SDS011;5712;48.858;9.206;2023-03-19T04:13:42;5.60;;;5.10;;
11313;SDS011;5712;48.858;9.206;2023-03-19T04:16:09;5.60;;;5.00;;
11313;SDS011;5712;48.858;9.206;2023-03-19T04:18:36;6.67;;;5.80;;
11313;SDS011;5712;48.858;9.206;2023-03-19T04:21:03;9.83;;;6.37;;
11313;SDS011;5712;48.858;9.206;2023-03-19T04:23:31;6.47;;;5.53;;
11313;SDS011;5712;48.858;9.206;2023-03-19T04:25:58;7.10;;;5.30;;
11313;SDS011;5712;48.858;9.206;2023-03-19T04:28:27;6.97;;;5.47;;
11313;SDS011;5712;48.858;9.206;2023-03-19T04:30:57;6.80;;;5.83;;
11313;SDS011;5712;48.858;9.206;2023-03-19T04:33:24;12.80;;;6.40;;
11313;SDS011;5712;48.858;9.206;2023-03-19T04:35:51;9.00;;;6.57;;
11313;SDS011;5712;48.858;9.206;2023-03-19T04:38:18;7.07;;;6.20;;
11313;SDS011;5712;48.858;9.206;2023-03-19T04:40:45;7.60;;;5.97;;
11313;SDS011;5712;48.858;9.206;2023-03-19T04:43:12;7.83;;;5.73;;
11313;SDS011;5712;48.858;9.206;2023-03-19T04:45:41;6.63;;;5.83;;
11313;SDS011;5712;48.858;9.206;2023-03-19T04:48:10;8.53;;;5.83;;
11313;SDS011;5712;48.858;9.206;2023-03-19T04:50:37;6.10;;;5.50;;
11313;SDS011;5712;48.858;9.206;2023-03-19T04:53:04;6.60;;;5.90;;
11313;SDS011;5712;48.858;9.206;2023-03-19T04:55:32;7.17;;;5.40;;
11313;SDS011;5712;48.858;9.206;2023-03-19T04:58:01;7.10;;;5.00;;
11313;SDS011;5712;48.858;9.206;2023-03-19T05:00:28;7.83;;;5.57;;
11313;SDS011;5712;48.858;9.206;2023-03-19T05:02:57;7.00;;;5.07;;
11313;SDS011;5712;48.858;9.206;2023-03-19T05:05:23;6.10;;;5.50;;
11313;SDS011;5712;48.858;9.206;2023-03-19T05:07:50;8.90;;;5.97;;
11313;SDS011;5712;48.858;9.206;2023-03-19T05:10:16;6.67;;;5.50;;
11313;SDS011;5712;48.858;9.206;2023-03-19T05:12:43;6.33;;;5.73;;
11313;SDS011;5712;48.858;9.206;2023-03-19T05:15:10;7.33;;;6.27;;
11313;SDS011;5712;48.858;9.206;2023-03-19T05:17:36;9.33;;;6.30;;
11313;SDS011;5712;48.858;9.206;2023-03-19T05:20:05;7.03;;;6.33;;
11313;SDS011;5712;48.858;9.206;2023-03-19T05:22:33;7.50;;;5.23;;
11313;SDS011;5712;48.858;9.206;2023-03-19T05:25:00;6.80;;;5.50;;
11313;SDS011;5712;48.858;9.206;2023-03-19T05:27:26;5.97;;;5.30;;
11313;SDS011;5712;48.858;9.206;2023-03-19T05:29:53;7.10;;;5.63;;
11313;SDS011;5712;48.858;9.206;2023-03-19T05:32:19;7.23;;;5.60;;
11313;SDS011;5712;48.858;9.206;2023-03-19T05:34:46;5.30;;;4.73;;
11313;SDS011;5712;48.858;9.206;2023-03-19T05:37:13;6.00;;;5.10;;
11313;SDS011;5712;48.858;9.206;2023-03-19T05:39:41;5.60;;;4.97;;
11313;SDS011;5712;48.858;9.206;2023-03-19T05:42:07;5.87;;;5.20;;
11313;SDS011;5712;48.858;9.206;2023-03-19T05:44:34;6.93;;;5.20;;
11313;SDS011;5712;48.858;9.206;2023-03-19T05:47:00;5.87;;;5.10;;
11313;SDS011;5712;48.858;9.206;2023-03-19T05:49:27;7.43;;;5.30;;
11313;SDS011;5712;48.858;9.206;2023-03-19T05:51:54;6.33;;;5.10;;
11313;SDS011;5712;48.858;9.206;2023-03-19T05:54:21;5.73;;;5.07;;
11313;SDS011;5712;48.858;9.206;2023-03-19T05:56:48;5.43;;;4.93;;
11313;SDS011;5712;48.858;9.206;2023-03-19T05:59:15;6.10;;;5.00;;
11313;SDS011;5712;48.858;9.206;2023-03-19T06:01:42;6.43;;;5.30;;
11313;SDS011;5712;48.858;9.206;2023-03-19T06:04:09;6.80;;;5.87;;
11313;SDS011;5712;48.858;9.206;2023-03-19T06:06:35;6.57;;;5.37;;
11313;SDS011;5712;48.858;9.206;2023-03-19T06:09:02;8.23;;;5.73;;
11313;SDS011;5712;48.858;9.206;2023-03-19T06:11:30;6.70;;;5.60;;
11313;SDS011;5712;48.858;9.206;2023-03-19T06:13:56;5.83;;;5.20;;
11313;SDS011;5712;48.858;9.206;2023-03-19T06:16:23;7.97;;;5.80;;
11313;SDS011;5712;48.858;9.206;2023-03-19T06:18:49;7.10;;;4.90;;
11313;SDS011;5712;48.858;9.206;2023-03-19T06:21:16;5.83;;;5.00;;
11313;SDS011;5712;48.858;9.206;2023-03-19T06:23:42;5.80;;;5.30;;
11313;SDS011;5712;48.858;9.206;2023-03-19T06:26:09;6.70;;;4.70;;
11313;SDS011;5712;48.858;9.206;2023-03-19T06:28:37;5.53;;;4.93;;
11313;SDS011;5712;48.858;9.206;2023-03-19T06:31:03;5.87;;;5.00;;
11313;SDS011;5712;48.858;9.206;2023-03-19T06:33:30;5.10;;;4.60;;
11313;SDS011;5712;48.858;9.206;2023-03-19T06:35:57;4.93;;;4.47;;
11313;SDS011;5712;48.858;9.206;2023-03-19T06:38:24;6.40;;;4.63;;
11313;SDS011;5712;48.858;9.206;2023-03-19T06:40:51;7.47;;;4.40;;
11313;SDS011;5712;48.858;9.206;2023-03-19T06:43:17;6.10;;;4.60;;
11313;SDS011;5712;48.858;9.206;2023-03-19T06:45:45;5.57;;;4.50;;
11313;SDS011;5712;48.858;9.206;2023-03-19T06:48:12;5.07;;;4.53;;
11313;SDS011;5712;48.858;9.206;2023-03-19T06:50:38;5.10;;;4.53;;
11313;SDS011;5712;48.858;9.206;2023-03-19T06:53:05;5.57;;;4.60;;
11313;SDS011;5712;48.858;9.206;2023-03-19T06:55:31;5.97;;;4.23;;
11313;SDS011;5712;48.858;9.206;2023-03-19T06:57:58;5.00;;;4.50;;
11313;SDS011;5712;48.858;9.206;2023-03-19T07:00:24;5.50;;;4.30;;
11313;SDS011;5712;48.858;9.206;2023-03-19T07:02:53;5.67;;;4.47;;
11313;SDS011;5712;48.858;9.206;2023-03-19T07:05:19;6.53;;;4.40;;
11313;SDS011;5712;48.858;9.206;2023-03-19T07:07:46;5.23;;;4.10;;
11313;SDS011;5712;48.858;9.206;2023-03-19T07:10:13;4.73;;;4.17;;
11313;SDS011;5712;48.858;9.206;2023-03-19T07:12:39;5.57;;;4.80;;
11313;SDS011;5712;48.858;9.206;2023-03-19T07:15:06;6.00;;;4.93;;
11313;SDS011;5712;48.858;9.206;2023-03-19T07:17:33;6.77;;;5.30;;
11313;SDS011;5712;48.858;9.206;2023-03-19T07:20:01;6.90;;;5.20;;
11313;SDS011;5712;48.858;9.206;2023-03-19T07:22:27;6.13;;;5.27;;
11313;SDS011;5712;48.858;9.206;2023-03-19T07:24:54;6.23;;;4.97;;
11313;SDS011;5712;48.858;9.206;2023-03-19T07:27:20;6.03;;;4.90;;
11313;SDS011;5712;48.858;9.206;2023-03-19T07:29:47;6.50;;;5.17;;
11313;SDS011;5712;48.858;9.206;2023-03-19T07:32:13;7.63;;;4.33;;
11313;SDS011;5712;48.858;9.206;2023-03-19T07:34:40;4.63;;;4.20;;
11313;SDS011;5712;48.858;9.206;2023-03-19T07:37:08;5.27;;;3.90;;
11313;SDS011;5712;48.858;9.206;2023-03-19T07:39:34;4.90;;;4.07;;
11313;SDS011;5712;48.858;9.206;2023-03-19T07:42:01;4.53;;;4.10;;
11313;SDS011;5712;48.858;9.206;2023-03-19T07:44:28;6.27;;;3.93;;
11313;SDS011;5712;48.858;9.206;2023-03-19T07:46:54;7.07;;;4.40;;
11313;SDS011;5712;48.858;9.206;2023-03-19T07:49:21;5.83;;;4.43;;
11313;SDS011;5712;48.858;9.206;2023-03-19T07:51:48;4.80;;;3.97;;
11313;SDS011;5712;48.858;9.206;2023-03-19T07:54:16;6.47;;;4.23;;
11313;SDS011;5712;48.858;9.206;2023-03-19T07:56:43;5.60;;;4.37;;
11313;SDS011;5712;48.858;9.206;2023-03-19T07:59:09;6.37;;;4.30;;
11313;SDS011;5712;48.858;9.206;2023-03-19T08:01:36;5.67;;;4.27;;
11313;SDS011;5712;48.858;9.206;2023-03-19T08:04:02;4.60;;;4.17;;
11313;SDS011;5712;48.858;9.206;2023-03-19T08:06:29;5.60;;;3.93;;
11313;SDS011;5712;48.858;9.206;2023-03-19T08:08:55;4.60;;;3.70;;
11313;SDS011;5712;48.858;9.206;2023-03-19T08:11:23;6.37;;;4.50;;
11313;SDS011;5712;48.858;9.206;2023-03-19T08:13:50;4.20;;;3.77;;
11313;SDS011;5712;48.858;9.206;2023-03-19T08:16:16;5.40;;;3.83;;
11313;SDS011;5712;48.858;9.206;2023-03-19T08:18:43;5.17;;;4.40;;
11313;SDS011;5712;48.858;9.206;2023-03-19T08:21:09;5.23;;;4.33;;
11313;SDS011;5712;48.858;9.206;2023-03-19T08:23:36;4.43;;;4.03;;
11313;SDS011;5712;48.858;9.206;2023-03-19T08:26:02;6.57;;;4.13;;
11313;SDS011;5712;48.858;9.206;2023-03-19T08:28:30;5.33;;;3.93;;
11313;SDS011;5712;48.858;9.206;2023-03-19T08:30:57;4.97;;;4.00;;
11313;SDS011;5712;48.858;9.206;2023-03-19T08:33:23;4.97;;;4.00;;
11313;SDS011;5712;48.858;9.206;2023-03-19T08:35:50;5.37;;;4.17;;
11313;SDS011;5712;48.858;9.206;2023-03-19T08:38:17;5.17;;;4.00;;
11313;SDS011;5712;48.858;9.206;2023-03-19T08:40:44;5.67;;;3.73;;
11313;SDS011;5712;48.858;9.206;2023-03-19T08:43:10;4.10;;;3.60;;
11313;SDS011;5712;48.858;9.206;2023-03-19T08:45:38;4.80;;;3.73;;
11313;SDS011;5712;48.858;9.206;2023-03-19T08:48:05;6.43;;;4.80;;
11313;SDS011;5712;48.858;9.206;2023-03-19T08:50:31;4.43;;;3.37;;
11313;SDS011;5712;48.858;9.206;2023-03-19T08:52:57;6.20;;;3.60;;
11313;SDS011;5712;48.858;9.206;2023-03-19T08:55:24;4.00;;;3.47;;
11313;SDS011;5712;48.858;9.206;2023-03-19T08:57:50;4.93;;;3.70;;
11313;SDS011;5712;48.858;9.206;2023-03-19T09:00:17;4.47;;;3.60;;
11313;SDS011;5712;48.858;9.206;2023-03-19T09:02:45;4.17;;;3.50;;
11313;SDS011;5712;48.858;9.206;2023-03-19T09:05:12;5.37;;;3.40;;
11313;SDS011;5712;48.858;9.206;2023-03-19T09:07:38;4.77;;;3.57;;
11313;SDS011;5712;48.858;9.206;2023-03-19T09:10:05;4.20;;;3.63;;
11313;SDS011;5712;48.858;9.206;2023-03-19T09:12:32;4.80;;;3.43;;
11313;SDS011;5712;48.858;9.206;2023-03-19T09:14:59;4.07;;;3.27;;
11313;SDS011;5712;48.858;9.206;2023-03-19T09:17:26;3.77;;;3.37;;
11313;SDS011;5712;48.858;9.206;2023-03-19T09:19:53;3.50;;;3.20;;
11313;SDS011;5712;48.858;9.206;2023-03-19T09:22:20;4.57;;;3.53;;
11313;SDS011;5712;48.858;9.206;2023-03-19T09:24:46;5.60;;;3.57;;
11313;SDS011;5712;48.858;9.206;2023-03-19T09:27:13;3.97;;;3.17;;
11313;SDS011;5712;48.858;9.206;2023-03-19T09:29:39;3.30;;;3.00;;
11313;SDS011;5712;48.858;9.206;2023-03-19T09:32:06;4.43;;;3.57;;
11313;SDS011;5712;48.858;9.206;2023-03-19T09:34:33;6.17;;;3.93;;
11313;SDS011;5712;48.858;9.206;2023-03-19T09:37:00;4.23;;;3.40;;
11313;SDS011;5712;48.858;9.206;2023-03-19T09:39:27;4.43;;;3.30;;
11313;SDS011;5712;48.858;9.206;2023-03-19T09:41:56;3.33;;;2.80;;
11313;SDS011;5712;48.858;9.206;2023-03-19T09:44:31;4.60;;;2.87;;
11313;SDS011;5712;48.858;9.206;2023-03-19T09:47:03;4.23;;;3.00;;
11313;SDS011;5712;48.858;9.206;2023-03-19T09:49:44;4.90;;;2.83;;
11313;SDS011;5712;48.858;9.206;2023-03-19T09:52:17;4.97;;;3.00;;
11313;SDS011;5712;48.858;9.206;2023-03-19T09:54:54;4.00;;;3.07;;
11313;SDS011;5712;48.858;9.206;2023-03-19T09:57:22;6.60;;;3.40;;
11313;SDS011;5712;48.858;9.206;2023-03-19T09:59:49;4.23;;;2.80;;
11313;SDS011;5712;48.858;9.206;2023-03-19T10:02:23;4.03;;;3.00;;
11313;SDS011;5712;48.858;9.206;2023-03-19T10:05:05;4.33;;;3.10;;
11313;SDS011;5712;48.858;9.206;2023-03-19T10:07:50;3.47;;;2.77;;
11313;SDS011;5712;48.858;9.206;2023-03-19T10:10:32;3.00;;;2.70;;
11313;SDS011;5712;48.858;9.206;2023-03-19T10:13:11;2.60;;;2.40;;
11313;SDS011;5712;48.858;9.206;2023-03-19T10:15:51;3.67;;;2.27;;
11313;SDS011;5712;48.858;9.206;2023-03-19T10:18:20;3.27;;;2.83;;
11313;SDS011;5712;48.858;9.206;2023-03-19T10:20:52;3.27;;;2.43;;
11313;SDS011;5712;48.858;9.206;2023-03-19T10:23:32;4.37;;;2.43;;
11313;SDS011;5712;48.858;9.206;2023-03-19T10:26:07;4.37;;;2.60;;
11313;SDS011;5712;48.858;9.206;2023-03-19T10:28:36;3.07;;;2.30;;
11313;SDS011;5712;48.858;9.206;2023-03-19T10:31:13;3.80;;;2.53;;
11313;SDS011;5712;48.858;9.206;2023-03-19T10:33:51;2.67;;;2.47;;
11313;SDS011;5712;48.858;9.206;2023-03-19T10:36:21;5.67;;;2.50;;
11313;SDS011;5712;48.858;9.206;2023-03-19T10:38:53;4.57;;;2.50;;
11313;SDS011;5712;48.858;9.206;2023-03-19T10:41:23;4.53;;;2.40;;
11313;SDS011;5712;48.858;9.206;2023-03-19T10:44:02;4.13;;;2.50;;
11313;SDS011;5712;48.858;9.206;2023-03-19T10:46:37;3.23;;;2.30;;
11313;SDS011;5712;48.858;9.206;2023-03-19T10:49:04;3.00;;;2.10;;
11313;SDS011;5712;48.858;9.206;2023-03-19T10:51:36;3.33;;;2.40;;
11313;SDS011;5712;48.858;9.206;2023-03-19T10:54:14;2.67;;;2.47;;
11313;SDS011;5712;48.858;9.206;2023-03-19T10:56:45;3.50;;;2.43;;
11313;SDS011;5712;48.858;9.206;2023-03-19T10:59:18;2.80;;;2.60;;
11313;SDS011;5712;48.858;9.206;2023-03-19T11:01:47;3.07;;;2.13;;
11313;SDS011;5712;48.858;9.206;2023-03-19T11:04:15;2.77;;;2.03;;
11313;SDS011;5712;48.858;9.206;2023-03-19T11:06:47;2.63;;;1.97;;
11313;SDS011;5712;48.858;9.206;2023-03-19T11:09:20;3.63;;;1.80;;
11313;SDS011;5712;48.858;9.206;2023-03-19T11:11:52;3.10;;;1.87;;
11313;SDS011;5712;48.858;9.206;2023-03-19T11:14:24;1.60;;;1.47;;
11313;SDS011;5712;48.858;9.206;2023-03-19T11:16:57;3.27;;;2.10;;
11313;SDS011;5712;48.858;9.206;2023-03-19T11:19:30;2.37;;;1.80;;
11313;SDS011;5712;48.858;9.206;2023-03-19T11:22:07;3.37;;;1.50;;
11313;SDS011;5712;48.858;9.206;2023-03-19T11:24:37;2.50;;;1.87;;
11313;SDS011;5712;48.858;9.206;2023-03-19T11:27:05;2.67;;;1.80;;
11313;SDS011;5712;48.858;9.206;2023-03-19T11:29:33;3.03;;;1.80;;
11313;SDS011;5712;48.858;9.206;2023-03-19T11:32:04;2.00;;;1.70;;
11313;SDS011;5712;48.858;9.206;2023-03-19T11:34:48;2.03;;;1.70;;
11313;SDS011;5712;48.858;9.206;2023-03-19T11:37:20;2.33;;;1.70;;
11313;SDS011;5712;48.858;9.206;2023-03-19T11:39:57;2.00;;;1.80;;
11313;SDS011;5712;48.858;9.206;2023-03-19T11:42:35;2.70;;;1.70;;
11313;SDS011;5712;48.858;9.206;2023-03-19T11:45:16;2.73;;;1.70;;
11313;SDS011;5712;48.858;9.206;2023-03-19T11:47:57;3.67;;;1.73;;
11313;SDS011;5712;48.858;9.206;2023-03-19T11:50:40;3.33;;;2.20;;
11313;SDS011;5712;48.858;9.206;2023-03-19T11:53:17;2.03;;;1.80;;
11313;SDS011;5712;48.858;9.206;2023-03-19T11:55:52;3.47;;;1.90;;
11313;SDS011;5712;48.858;9.206;2023-03-19T11:58:34;3.00;;;1.73;;
11313;SDS011;5712;48.858;9.206;2023-03-19T12:01:29;2.53;;;1.60;;
11313;SDS011;5712;48.858;9.206;2023-03-19T12:04:13;2.80;;;1.90;;
11313;SDS011;5712;48.858;9.206;2023-03-19T12:06:53;3.43;;;1.90;;
11313;SDS011;5712;48.858;9.206;2023-03-19T12:09:28;3.70;;;1.97;;
11313;SDS011;5712;48.858;9.206;2023-03-19T12:12:04;3.33;;;1.97;;
11313;SDS011;5712;48.858;9.206;2023-03-19T12:14:44;3.40;;;1.83;;
11313;SDS011;5712;48.858;9.206;2023-03-19T12:17:23;1.80;;;1.70;;
11313;SDS011;5712;48.858;9.206;2023-03-19T12:23:05;2.53;;;2.07;;
11313;SDS011;5712;48.858;9.206;2023-03-19T12:25:44;3.53;;;2.00;;
11313;SDS011;5712;48.858;9.206;2023-03-19T12:28:23;3.67;;;2.03;;
11313;SDS011;5712;48.858;9.206;2023-03-19T12:30:58;3.03;;;2.00;;
11313;SDS011;5712;48.858;9.206;2023-03-19T12:33:46;2.60;;;2.00;;
11313;SDS011;5712;48.858;9.206;2023-03-19T12:36:18;3.27;;;2.10;;
11313;SDS011;5712;48.858;9.206;2023-03-19T12:38:49;3.60;;;2.10;;
11313;SDS011;5712;48.858;9.206;2023-03-19T12:41:20;3.07;;;1.80;;
11313;SDS011;5712;48.858;9.206;2023-03-19T12:43:53;2.20;;;2.00;;
11313;SDS011;5712;48.858;9.206;2023-03-19T12:46:25;3.17;;;1.80;;
11313;SDS011;5712;48.858;9.206;2023-03-19T12:48:56;2.20;;;1.83;;
11313;SDS011;5712;48.858;9.206;2023-03-19T12:51:29;3.20;;;2.03;;
11313;SDS011;5712;48.858;9.206;2023-03-19T12:54:00;4.00;;;2.40;;
11313;SDS011;5712;48.858;9.206;2023-03-19T12:56:32;2.67;;;1.90;;
11313;SDS011;5712;48.858;9.206;2023-03-19T12:59:07;2.13;;;1.80;;
11313;SDS011;5712;48.858;9.206;2023-03-19T13:01:40;2.63;;;2.10;;
11313;SDS011;5712;48.858;9.206;2023-03-19T13:04:10;3.13;;;1.97;;
11313;SDS011;5712;48.858;9.206;2023-03-19T13:06:40;2.30;;;2.10;;
11313;SDS011;5712;48.858;9.206;2023-03-19T13:09:14;2.60;;;2.10;;
11313;SDS011;5712;48.858;9.206;2023-03-19T13:11:50;3.80;;;2.30;;
11313;SDS011;5712;48.858;9.206;2023-03-19T13:14:25;2.97;;;2.00;;
11313;SDS011;5712;48.858;9.206;2023-03-19T13:16:59;3.37;;;2.20;;
11313;SDS011;5712;48.858;9.206;2023-03-19T13:19:30;2.40;;;2.20;;
11313;SDS011;5712;48.858;9.206;2023-03-19T13:22:09;3.87;;;2.30;;
11313;SDS011;5712;48.858;9.206;2023-03-19T13:24:40;4.80;;;2.60;;
11313;SDS011;5712;48.858;9.206;2023-03-19T13:27:08;2.53;;;2.13;;
11313;SDS011;5712;48.858;9.206;2023-03-19T13:29:51;4.40;;;1.80;;
11313;SDS011;5712;48.858;9.206;2023-03-19T13:32:24;3.27;;;2.10;;
11313;SDS011;5712;48.858;9.206;2023-03-19T13:35:07;3.33;;;2.43;;
11313;SDS011;5712;48.858;9.206;2023-03-19T13:37:39;3.50;;;2.13;;
11313;SDS011;5712;48.858;9.206;2023-03-19T13:40:23;3.50;;;2.30;;
11313;SDS011;5712;48.858;9.206;2023-03-19T13:43:03;3.77;;;2.00;;
11313;SDS011;5712;48.858;9.206;2023-03-19T13:45:34;3.10;;;1.90;;
11313;SDS011;5712;48.858;9.206;2023-03-19T13:51:01;2.97;;;1.97;;
11313;SDS011;5712;48.858;9.206;2023-03-19T13:53:34;2.27;;;1.80;;
11313;SDS011;5712;48.858;9.206;2023-03-19T13:56:05;1.73;;;1.63;;
11313;SDS011;5712;48.858;9.206;2023-03-19T13:58:44;2.23;;;1.93;;
11313;SDS011;5712;48.858;9.206;2023-03-19T14:01:38;2.80;;;1.60;;
11313;SDS011;5712;48.858;9.206;2023-03-19T14:04:14;2.10;;;1.50;;
11313;SDS011;5712;48.858;9.206;2023-03-19T14:06:44;1.90;;;1.50;;
11313;SDS011;5712;48.858;9.206;2023-03-19T14:09:35;2.17;;;1.57;;
11313;SDS011;5712;48.858;9.206;2023-03-19T14:14:59;5.10;;;2.50;;
11313;SDS011;5712;48.858;9.206;2023-03-19T14:17:31;3.17;;;2.63;;
11313;SDS011;5712;48.858;9.206;2023-03-19T14:20:02;3.60;;;2.53;;
11313;SDS011;5712;48.858;9.206;2023-03-19T14:22:52;3.90;;;2.80;;
11313;SDS011;5712;48.858;9.206;2023-03-19T14:25:22;2.90;;;2.60;;
11313;SDS011;5712;48.858;9.206;2023-03-19T14:27:50;4.57;;;2.70;;
11313;SDS011;5712;48.858;9.206;2023-03-19T14:30:25;7.17;;;5.47;;
11313;SDS011;5712;48.858;9.206;2023-03-19T14:32:58;6.47;;;4.87;;
11313;SDS011;5712;48.858;9.206;2023-03-19T14:35:27;6.30;;;4.07;;
11313;SDS011;5712;48.858;9.206;2023-03-19T14:37:55;6.20;;;3.50;;
11313;SDS011;5712;48.858;9.206;2023-03-19T14:40:22;5.10;;;3.33;;
11313;SDS011;5712;48.858;9.206;2023-03-19T14:42:59;5.07;;;2.70;;
11313;SDS011;5712;48.858;9.206;2023-03-19T14:45:34;6.33;;;3.27;;
11313;SDS011;5712;48.858;9.206;2023-03-19T14:48:13;3.03;;;2.30;;
11313;SDS011;5712;48.858;9.206;2023-03-19T14:50:50;4.03;;;2.43;;
11313;SDS011;5712;48.858;9.206;2023-03-19T14:53:29;4.10;;;2.30;;
11313;SDS011;5712;48.858;9.206;2023-03-19T14:56:09;3.97;;;2.33;;
11313;SDS011;5712;48.858;9.206;2023-03-19T14:58:45;2.63;;;2.00;;
11313;SDS011;5712;48.858;9.206;2023-03-19T15:01:13;4.70;;;1.83;;
11313;SDS011;5712;48.858;9.206;2023-03-19T15:03:41;2.00;;;1.80;;
11313;SDS011;5712;48.858;9.206;2023-03-19T15:06:08;2.77;;;1.67;;
11313;SDS011;5712;48.858;9.206;2023-03-19T15:08:38;2.03;;;1.70;;
11313;SDS011;5712;48.858;9.206;2023-03-19T15:11:12;3.40;;;1.67;;
11313;SDS011;5712;48.858;9.206;2023-03-19T15:13:56;2.97;;;1.73;;
11313;SDS011;5712;48.858;9.206;2023-03-19T15:16:32;2.23;;;1.70;;
11313;SDS011;5712;48.858;9.206;2023-03-19T15:19:09;2.73;;;1.87;;
11313;SDS011;5712;48.858;9.206;2023-03-19T15:21:36;3.17;;;1.90;;
11313;SDS011;5712;48.858;9.206;2023-03-19T15:24:03;3.30;;;2.07;;
11313;SDS011;5712;48.858;9.206;2023-03-19T15:26:31;2.80;;;1.80;;